• Join FlightAware (Why Join?)
  • Login
  • US Flag 
05:41PM EDT


 

Airport Tracker/Info


-or-


 

Live Flight TrackerFlight Track Log ✈ GJS6253 ✈ 13-May-2013 ✈ KLGA - KBTV

Flight Track Log - Related Links

Times and Time Zones

All times are in EDT time to prevent confusion due to time zone crossing. See the GJS6253 flight status page for this flight to view local times or setup timezone preferences in your user account.

Time Position Orientation Groundspeed Altitude Reporting Facility
EDT Latitude Longitude Course Direction KTS MPH feet Rate Location/Type
10:43PM 40.8000 -73.8500 33° Northeast 148 170 1,700  Level New York TRACON
10:44PM 40.8500 -73.8167 27° Northeast 204 235 4,000 2,460 Climbing New York TRACON
10:45PM 40.9167 -73.7667 30° Northeast 245 282 6,700 2,580 Climbing New York TRACON
10:46PM 40.9667 -73.7333 27° Northeast 250 288 9,200 2,040 Climbing New York TRACON
10:47PM 41.0333 -73.6667 37° Northeast 300 345 11,000 840 Climbing New York TRACON
10:48PM 41.1762 -73.5459 33° Northeast  Level FlightAware Approximate
10:49PM 41.2050 -73.5408 29° Northeast 349 402 12,100  Level Boston Center
10:50PM 41.2911 -73.4706 32° Northeast 335 386 14,700 2,280 Climbing Boston Center
10:51PM 41.3667 -73.4053 33° Northeast 343 395 16,700 1,680 Climbing Boston Center
10:52PM 41.4675 -73.3267 30° Northeast 355 409 18,100 1,320 Climbing Boston Center
10:53PM 41.5411 -73.2361 43° Northeast 389 448 19,400 1,500 Climbing Boston Center
10:54PM 41.6272 -73.1317 42° Northeast 401 461 21,100 1,800 Climbing Boston Center
10:55PM 41.7378 -73.1217 North 384 442 23,100 1,980 Climbing Boston Center
10:56PM 41.8522 -73.1453 351° North 389 448 25,100 1,740 Climbing Boston Center
10:57PM 41.9686 -73.1661 352° North 397 457 26,600 840 Climbing Boston Center
10:58PM 42.0875 -73.1869 353° North 417 480 27,000 180 Climbing Boston Center
10:59PM 42.2414 -73.2142 353° North 447 514 27,000  Level Boston Center
11:00PM 42.3706 -73.2297 355° North 458 527 27,000  Level Boston Center
11:01PM 42.4997 -73.2539 352° North 463 533 27,000  Level Boston Center
11:02PM 42.6244 -73.2808 351° North 463 533 27,000 -360 Level Boston Center
11:03PM 42.7494 -73.3025 353° North 458 527 26,300 -1,140 Descending Boston Center
11:04PM 42.8700 -73.3239 353° North 453 521 24,800 -1,200 Descending Boston Center
11:05PM 42.9886 -73.3428 353° North 435 501 24,000 -420 Descending Boston Center
11:06PM 43.1056 -73.3331 North 421 484 24,000  Level Boston Center
11:07PM 43.2453 -73.3153 North 415 478 24,000 -120 Level Boston Center
11:08PM 43.3600 -73.2997 North 420 483 23,800 -1,320 Descending Boston Center
11:09PM 43.4728 -73.2842 North 420 483 21,400 -2,400 Descending Boston Center
11:10PM 43.5728 -73.2711 North 393 452 19,100 -2,280 Descending Boston Center
11:11PM 43.6792 -73.2583 North 368 423 16,900 -2,100 Descending Boston Center
11:12PM 43.7772 -73.2453 North 343 395 14,900 -1,980 Descending Boston Center
11:13PM 43.8606 -73.2492 358° North 343 395 13,000 -1,680 Descending Boston Center
11:14PM 43.9481 -73.2533 358° North 324 373 11,600 -1,380 Descending Boston Center
11:15PM 44.0250 -73.2600 356° North 289 333 10,300 -1,320 Descending Boston Center
11:16PM 44.0981 -73.2639 358° North 269 310 9,000 -1,440 Descending Boston Center
11:17PM 44.1689 -73.2650 359° North 252 290 7,500 -1,500 Descending Boston Center
11:18PM 44.2375 -73.2689 358° North 252 290 6,000 -1,500 Descending Boston Center
11:19PM 44.3083 -73.2728 358° North 252 290 4,600 -1,200 Descending Boston Center
11:20PM 44.3708 -73.2736 359° North 241 277 3,700 -960 Descending Boston Center
11:21PM 44.4292 -73.2714 North 222 255 2,700 -900 Descending Boston Center
11:22PM 44.4769 -73.3042 334° Northwest 194 223 2,000 -420 Descending Boston Center
11:23PM 44.5144 -73.2872 18° North 133 153 1,900 -300 Descending Boston Center
11:24PM 44.5108 -73.2289 95° East 111 128 1,400 -600 Descending Boston Center
11:25PM 44.4881 -73.1822 124° Southeast 130 150 700 -540 Descending Boston Center
11:26PM 44.4717 -73.1411 119° Southeast 142 163 300 -360 Descending Boston Center